createdAt,value
2017-11-25T00:00:39.848Z,80.21
2017-11-25T00:01:39.767Z,79.83
2017-11-25T00:02:39.684Z,79.83
2017-11-25T00:03:39.603Z,80.02
2017-11-25T00:04:39.521Z,79.73
2017-11-25T00:05:39.436Z,79.44
2017-11-25T00:06:39.352Z,79.25
2017-11-25T00:07:39.270Z,79.35
2017-11-25T00:08:39.198Z,79.83
2017-11-25T00:09:39.110Z,79.54
2017-11-25T00:10:39.045Z,79.83
2017-11-25T00:11:38.950Z,80.02
2017-11-25T00:12:38.865Z,78.97
2017-11-25T00:13:38.781Z,79.35
2017-11-25T00:14:38.692Z,79.25
2017-11-25T00:15:38.619Z,79.06
2017-11-25T00:16:38.532Z,80.21
2017-11-25T00:17:38.448Z,79.54
2017-11-25T00:18:38.376Z,79.93
2017-11-25T00:19:38.290Z,80.02
2017-11-25T00:20:38.205Z,79.83
2017-11-25T00:21:38.128Z,79.93
2017-11-25T00:22:38.041Z,79.73
2017-11-25T00:23:37.961Z,79.44
2017-11-25T00:24:37.889Z,79.73
2017-11-25T00:25:37.805Z,79.83
2017-11-25T00:26:37.716Z,79.83
2017-11-25T00:27:37.631Z,79.88
2017-11-25T00:28:37.550Z,79.79
2017-11-25T00:29:37.469Z,79.54
2017-11-25T00:30:37.388Z,79.54
2017-11-25T00:31:37.304Z,80.02
2017-11-25T00:32:37.226Z,79.25
2017-11-25T00:33:37.141Z,79.12
2017-11-25T00:34:37.060Z,79.54
2017-11-25T00:35:36.975Z,79.93
2017-11-25T00:36:36.897Z,79.83
2017-11-25T00:37:36.824Z,79.93
2017-11-25T00:38:36.732Z,80.27
2017-11-25T00:39:36.647Z,80.17
2017-11-25T00:40:36.567Z,79.93
2017-11-25T00:41:36.483Z,80.11
2017-11-25T00:42:36.401Z,80.59
2017-11-25T00:43:36.319Z,79.73
2017-11-25T00:44:36.238Z,80.59
2017-11-25T00:45:36.154Z,80.11
2017-11-25T00:46:36.071Z,79.54
2017-11-25T00:47:35.994Z,80.40
2017-11-25T00:48:35.911Z,80.02
2017-11-25T00:49:35.837Z,80.40
2017-11-25T00:50:35.754Z,80.69
2017-11-25T00:51:35.669Z,80.59
2017-11-25T00:52:35.581Z,80.40
2017-11-25T00:53:35.516Z,79.44
2017-11-25T00:54:35.421Z,79.83
2017-11-25T00:55:35.338Z,80.30
2017-11-25T00:56:35.255Z,80.40
2017-11-25T00:57:35.173Z,80.50
2017-11-25T00:58:35.091Z,80.65
2017-11-25T00:59:35.016Z,81.16
2017-11-25T01:00:34.928Z,80.98
2017-11-25T01:01:34.851Z,81.16
2017-11-25T01:02:34.767Z,81.45
2017-11-25T01:03:34.689Z,81.55
2017-11-25T01:04:34.593Z,81.55
2017-11-25T01:05:34.521Z,81.93
2017-11-25T01:06:34.443Z,81.93
2017-11-25T01:07:34.353Z,82.22
2017-11-25T01:08:34.270Z,82.84
2017-11-25T01:09:34.870Z,82.89
2017-11-25T01:10:34.108Z,82.70
2017-11-25T01:11:34.028Z,82.79
2017-11-25T01:12:33.944Z,82.79
2017-11-25T01:13:33.868Z,83.33
2017-11-25T01:14:33.784Z,83.56
2017-11-25T01:15:33.705Z,83.42
2017-11-25T01:16:33.636Z,83.70
2017-11-25T01:17:33.560Z,84.09
2017-11-25T01:18:33.463Z,84.52
2017-11-25T01:19:33.379Z,84.76
2017-11-25T01:20:33.300Z,84.47
2017-11-25T01:21:33.215Z,84.05
2017-11-25T01:22:33.128Z,84.66
2017-11-25T01:23:33.047Z,84.95
2017-11-25T01:24:32.975Z,85.19
2017-11-25T01:25:32.894Z,86.15
2017-11-25T01:26:32.803Z,86.00
2017-11-25T01:27:32.715Z,84.85
2017-11-25T01:28:32.633Z,85.29
2017-11-25T01:29:32.551Z,85.96
2017-11-25T01:30:32.471Z,85.33
2017-11-25T01:31:32.386Z,84.76
2017-11-25T01:32:32.302Z,84.47
2017-11-25T01:33:32.222Z,84.47
2017-11-25T01:34:32.137Z,83.90
2017-11-25T01:35:32.050Z,83.99
2017-11-25T01:36:31.968Z,84.66
2017-11-25T01:37:31.892Z,84.85
2017-11-25T01:38:31.806Z,84.76
2017-11-25T01:39:31.725Z,84.95
2017-11-25T01:40:31.644Z,84.56
2017-11-25T01:41:31.559Z,84.28
2017-11-25T01:42:31.478Z,83.95
2017-11-25T01:43:31.407Z,83.42
2017-11-25T01:44:31.315Z,82.56
2017-11-25T01:45:31.239Z,82.18
2017-11-25T01:46:31.144Z,82.37
2017-11-25T01:47:31.059Z,81.27
2017-11-25T01:48:30.981Z,82.04
2017-11-25T01:49:30.896Z,81.89
2017-11-25T01:50:30.806Z,81.22
2017-11-25T01:51:30.728Z,81.66
2017-11-25T01:52:30.651Z,81.60
2017-11-25T01:53:30.567Z,81.51
2017-11-25T01:54:30.478Z,81.60
2017-11-25T01:55:30.397Z,81.32
2017-11-25T01:56:30.315Z,81.32
2017-11-25T01:57:30.231Z,81.89
2017-11-25T01:58:30.149Z,82.46
2017-11-25T01:59:30.065Z,82.46
2017-11-25T02:00:29.986Z,82.28
2017-11-25T02:01:29.908Z,83.04
2017-11-25T02:02:29.825Z,82.94
2017-11-25T02:03:29.734Z,82.61
2017-11-25T02:04:29.679Z,83.09
2017-11-25T02:05:29.573Z,82.94
2017-11-25T02:06:29.485Z,82.18
2017-11-25T02:07:29.404Z,82.28
2017-11-25T02:08:29.622Z,82.28
2017-11-25T02:09:29.244Z,82.18
2017-11-25T02:10:29.159Z,81.70
2017-11-25T02:11:29.078Z,82.42
2017-11-25T02:12:28.996Z,83.00
2017-11-25T02:13:28.912Z,83.04
2017-11-25T02:14:28.832Z,83.04
2017-11-25T02:15:28.749Z,82.90
2017-11-25T02:16:28.666Z,83.13
2017-11-25T02:17:28.584Z,83.13
2017-11-25T02:18:28.500Z,83.23
2017-11-25T02:19:28.423Z,82.56
2017-11-25T02:20:28.333Z,82.52
2017-11-25T02:21:28.264Z,82.04
2017-11-25T02:22:28.176Z,82.71
2017-11-25T02:23:28.086Z,82.90
2017-11-25T02:24:28.030Z,82.90
2017-11-25T02:25:27.927Z,82.84
2017-11-25T02:26:27.840Z,83.47
2017-11-25T02:27:27.762Z,84.14
2017-11-25T02:28:27.675Z,84.05
2017-11-25T02:29:27.601Z,83.86
2017-11-25T02:30:27.511Z,83.95
2017-11-25T02:31:27.431Z,83.67
2017-11-25T02:32:27.352Z,83.95
2017-11-25T02:33:27.262Z,83.90
2017-11-25T02:34:27.202Z,84.05
2017-11-25T02:35:27.100Z,83.76
2017-11-25T02:36:27.015Z,84.52
2017-11-25T02:37:26.934Z,84.52
2017-11-25T02:38:26.851Z,84.43
2017-11-25T02:39:26.767Z,84.62
2017-11-25T02:40:26.692Z,84.14
2017-11-25T02:41:26.603Z,83.86
2017-11-25T02:42:26.522Z,84.14
2017-11-25T02:43:26.438Z,84.33
2017-11-25T02:44:26.364Z,84.33
2017-11-25T02:45:26.281Z,84.05
2017-11-25T02:46:26.191Z,84.52
2017-11-25T02:47:26.108Z,84.81
2017-11-25T02:48:26.029Z,84.33
2017-11-25T02:49:25.943Z,84.91
2017-11-25T02:50:25.865Z,84.52
2017-11-25T02:51:25.776Z,84.43
2017-11-25T02:52:25.690Z,84.96
2017-11-25T02:53:25.634Z,85.25
2017-11-25T02:54:25.525Z,85.91
2017-11-25T02:55:25.444Z,86.01
2017-11-25T02:56:25.372Z,85.53
2017-11-25T02:57:25.279Z,85.82
2017-11-25T02:58:25.202Z,85.15
2017-11-25T02:59:25.125Z,85.63
2017-11-25T03:00:25.026Z,85.82
2017-11-25T03:01:24.947Z,86.30
2017-11-25T03:02:24.857Z,86.77
2017-11-25T03:03:24.777Z,86.58
2017-11-25T03:04:24.695Z,86.96
2017-11-25T03:05:24.629Z,86.96
2017-11-25T03:06:24.530Z,86.77
2017-11-25T03:07:24.444Z,86.68
2017-11-25T03:08:24.358Z,86.39
2017-11-25T03:09:24.277Z,86.20
2017-11-25T03:10:24.195Z,86.34
2017-11-25T03:11:24.107Z,85.91
2017-11-25T03:12:24.024Z,86.63
2017-11-25T03:13:23.947Z,86.53
2017-11-25T03:14:23.877Z,86.53
2017-11-25T03:15:23.781Z,85.86
2017-11-25T03:16:23.696Z,85.82
2017-11-25T03:17:23.620Z,87.35
2017-11-25T03:18:23.527Z,86.68
2017-11-25T03:19:23.445Z,86.96
2017-11-25T03:20:23.363Z,86.82
2017-11-25T03:21:23.294Z,86.77
2017-11-25T03:22:23.200Z,87.06
2017-11-25T03:23:23.116Z,86.53
2017-11-25T03:24:23.049Z,86.77
2017-11-25T03:25:22.945Z,87.54
2017-11-25T03:26:22.865Z,87.73
2017-11-25T03:27:22.780Z,86.96
2017-11-25T03:28:22.701Z,86.87
2017-11-25T03:29:22.612Z,87.58
2017-11-25T03:30:22.538Z,87.58
2017-11-25T03:31:22.458Z,86.87
2017-11-25T03:32:22.364Z,86.68
2017-11-25T03:33:22.284Z,86.77
2017-11-25T03:34:22.202Z,86.82
2017-11-25T03:35:22.115Z,86.96
2017-11-25T03:36:22.039Z,87.01
2017-11-25T03:37:22.503Z,86.82
2017-11-25T03:38:21.878Z,87.54
2017-11-25T03:39:21.804Z,87.35
2017-11-25T03:40:21.708Z,87.06
2017-11-25T03:41:21.626Z,86.43
2017-11-25T03:42:21.533Z,86.34
2017-11-25T03:43:21.451Z,86.87
2017-11-25T03:44:21.366Z,88.11
2017-11-25T03:45:21.281Z,87.73
2017-11-25T03:46:21.195Z,87.92
2017-11-25T03:47:21.115Z,87.73
2017-11-25T03:48:21.037Z,87.82
2017-11-25T03:49:20.952Z,87.44
2017-11-25T03:50:20.867Z,87.44
2017-11-25T03:51:20.788Z,86.87
2017-11-25T03:52:20.707Z,86.96
2017-11-25T03:53:20.617Z,87.35
2017-11-25T03:54:20.530Z,87.25
2017-11-25T03:55:20.446Z,86.68
2017-11-25T03:56:20.368Z,86.87
2017-11-25T03:57:20.280Z,86.96
2017-11-25T03:58:20.197Z,86.96
2017-11-25T03:59:20.114Z,87.11
2017-11-25T04:00:20.023Z,87.87
2017-11-25T04:01:19.949Z,88.01
2017-11-25T04:02:19.858Z,87.63
2017-11-25T04:03:19.779Z,87.92
2017-11-25T04:04:19.703Z,87.59
2017-11-25T04:05:19.614Z,88.54
2017-11-25T04:06:19.547Z,88.64
2017-11-25T04:07:19.443Z,89.64
2017-11-25T04:08:19.355Z,89.93
2017-11-25T04:09:19.268Z,89.64
2017-11-25T04:10:19.203Z,89.31
2017-11-25T04:11:19.105Z,88.73
2017-11-25T04:12:19.022Z,89.12
2017-11-25T04:13:18.954Z,89.50
2017-11-25T04:14:18.857Z,88.54
2017-11-25T04:15:18.766Z,88.69
2017-11-25T04:16:18.681Z,89.12
2017-11-25T04:17:18.597Z,89.26
2017-11-25T04:18:18.508Z,88.83
2017-11-25T04:19:18.424Z,88.07
2017-11-25T04:20:18.341Z,87.87
2017-11-25T04:21:18.258Z,88.73
2017-11-25T04:22:18.169Z,87.59
2017-11-25T04:23:18.093Z,88.07
2017-11-25T04:24:18.011Z,87.97
2017-11-25T04:25:17.915Z,87.97
2017-11-25T04:26:17.838Z,87.73
2017-11-25T04:27:17.755Z,87.87
2017-11-25T04:28:17.667Z,88.30
2017-11-25T04:29:17.581Z,88.26
2017-11-25T04:30:17.493Z,88.11
2017-11-25T04:31:17.446Z,87.49
2017-11-25T04:32:17.347Z,87.63
2017-11-25T04:33:17.253Z,87.21
2017-11-25T04:34:17.161Z,87.97
2017-11-25T04:35:17.078Z,87.87
2017-11-25T04:36:17.053Z,87.97
2017-11-25T04:37:16.914Z,87.21
2017-11-25T04:38:16.822Z,87.73
2017-11-25T04:39:16.740Z,88.07
2017-11-25T04:40:16.656Z,88.73
2017-11-25T04:41:16.590Z,89.26
2017-11-25T04:42:16.499Z,89.74
2017-11-25T04:43:16.403Z,89.26
2017-11-25T04:44:16.317Z,89.64
2017-11-25T04:45:16.236Z,89.12
2017-11-25T04:46:16.149Z,89.21
2017-11-25T04:47:16.073Z,88.07
2017-11-25T04:48:15.983Z,88.83
2017-11-25T04:49:15.897Z,87.97
2017-11-25T04:50:15.833Z,88.45
2017-11-25T04:51:15.740Z,88.07
2017-11-25T04:52:15.651Z,88.45
2017-11-25T04:53:15.565Z,88.35
2017-11-25T04:54:15.474Z,87.97
2017-11-25T04:55:15.395Z,87.87
2017-11-25T04:56:15.314Z,87.87
2017-11-25T04:57:15.223Z,89.50
2017-11-25T04:58:15.138Z,88.92
2017-11-25T04:59:15.056Z,88.92
2017-11-25T05:00:14.983Z,88.07
2017-11-25T05:01:14.895Z,88.07
2017-11-25T05:02:14.802Z,87.97
2017-11-25T05:03:14.718Z,88.07
2017-11-25T05:04:14.647Z,88.26
2017-11-25T05:05:14.556Z,87.68
2017-11-25T05:06:15.347Z,87.78
2017-11-25T05:07:14.406Z,88.07
2017-11-25T05:08:14.346Z,88.07
2017-11-25T05:09:14.222Z,89.12
2017-11-25T05:10:14.130Z,89.12
2017-11-25T05:11:14.045Z,88.92
2017-11-25T05:12:13.960Z,88.98
2017-11-25T05:13:13.876Z,89.69
2017-11-25T05:14:13.788Z,88.83
2017-11-25T05:15:13.703Z,89.07
2017-11-25T05:16:13.640Z,88.73
2017-11-25T05:17:13.542Z,88.78
2017-11-25T05:18:13.455Z,90.22
2017-11-25T05:19:13.376Z,90.59
2017-11-25T05:20:13.287Z,90.03
2017-11-25T05:21:13.204Z,89.36
2017-11-25T05:22:13.114Z,89.93
2017-11-25T05:23:13.030Z,89.26
2017-11-25T05:24:12.942Z,89.26
2017-11-25T05:25:12.864Z,89.07
2017-11-25T05:26:12.786Z,89.12
2017-11-25T05:27:12.698Z,89.12
2017-11-25T05:28:12.609Z,89.17
2017-11-25T05:29:12.525Z,90.12
2017-11-25T05:30:12.440Z,90.31
2017-11-25T05:31:12.363Z,89.83
2017-11-25T05:32:12.269Z,89.69
2017-11-25T05:33:12.190Z,89.21
2017-11-25T05:34:12.119Z,88.45
2017-11-25T05:35:12.023Z,89.45
2017-11-25T05:36:11.936Z,89.64
2017-11-25T05:37:11.856Z,88.88
2017-11-25T05:38:11.765Z,88.45
2017-11-25T05:39:11.680Z,88.26
2017-11-25T05:40:11.606Z,88.07
2017-11-25T05:41:11.509Z,88.26
2017-11-25T05:42:11.426Z,88.02
2017-11-25T05:43:11.344Z,88.59
2017-11-25T05:44:11.261Z,88.59
2017-11-25T05:45:11.173Z,89.54
2017-11-25T05:46:11.095Z,89.60
2017-11-25T05:47:11.006Z,90.55
2017-11-25T05:48:10.916Z,89.54
2017-11-25T05:49:10.834Z,89.26
2017-11-25T05:50:10.752Z,89.02
2017-11-25T05:51:10.664Z,88.26
2017-11-25T05:52:10.582Z,88.50
2017-11-25T05:53:10.503Z,88.31
2017-11-25T05:54:10.417Z,88.40
2017-11-25T05:55:10.330Z,89.07
2017-11-25T05:56:10.248Z,88.69
2017-11-25T05:57:10.159Z,89.54
2017-11-25T05:58:10.076Z,89.07
2017-11-25T05:59:09.994Z,88.12
2017-11-25T06:00:09.905Z,89.07
2017-11-25T06:01:09.831Z,88.88
2017-11-25T06:02:09.758Z,88.12
2017-11-25T06:03:09.656Z,87.93
2017-11-25T06:04:09.566Z,89.17
2017-11-25T06:05:09.946Z,88.50
2017-11-25T06:06:09.397Z,88.12
2017-11-25T06:07:09.317Z,88.26
2017-11-25T06:08:09.241Z,87.68
2017-11-25T06:09:09.146Z,88.31
2017-11-25T06:10:09.060Z,88.40
2017-11-25T06:11:08.988Z,87.78
2017-11-25T06:12:08.899Z,88.21
2017-11-25T06:13:08.803Z,88.50
2017-11-25T06:14:08.731Z,88.59
2017-11-25T06:15:08.636Z,88.98
2017-11-25T06:16:08.549Z,89.54
2017-11-25T06:17:08.473Z,88.88
2017-11-25T06:18:08.385Z,88.98
2017-11-25T06:19:08.301Z,88.78
2017-11-25T06:20:08.227Z,88.69
2017-11-25T06:21:08.130Z,88.84
2017-11-25T06:22:08.042Z,89.26
2017-11-25T06:23:07.984Z,88.88
2017-11-25T06:24:07.880Z,88.59
2017-11-25T06:25:07.810Z,87.98
2017-11-25T06:26:07.701Z,88.45
2017-11-25T06:27:07.611Z,87.93
2017-11-25T06:28:07.528Z,87.88
2017-11-25T06:29:07.551Z,88.12
2017-11-25T06:30:07.358Z,88.31
2017-11-25T06:31:07.279Z,88.02
2017-11-25T06:32:07.190Z,87.79
2017-11-25T06:33:07.099Z,88.40
2017-11-25T06:34:07.019Z,88.40
2017-11-25T06:35:06.935Z,88.12
2017-11-25T06:36:06.850Z,88.02
2017-11-25T06:37:06.763Z,88.12
2017-11-25T06:38:06.673Z,87.64
2017-11-25T06:39:06.592Z,88.12
2017-11-25T06:40:06.506Z,87.69
2017-11-25T06:41:06.424Z,87.16
2017-11-25T06:42:06.334Z,87.07
2017-11-25T06:43:06.249Z,87.07
2017-11-25T06:44:06.172Z,86.88
2017-11-25T06:45:06.091Z,86.88
2017-11-25T06:46:05.999Z,86.78
2017-11-25T06:47:05.914Z,86.69
2017-11-25T06:48:05.829Z,87.26
2017-11-25T06:49:05.742Z,86.69
2017-11-25T06:50:05.672Z,86.69
2017-11-25T06:51:05.571Z,86.40
2017-11-25T06:52:05.484Z,86.21
2017-11-25T06:53:05.404Z,86.11
2017-11-25T06:54:05.334Z,86.21
2017-11-25T06:55:05.235Z,86.49
2017-11-25T06:56:05.196Z,86.49
2017-11-25T06:57:05.067Z,87.31
2017-11-25T06:58:04.980Z,87.12
2017-11-25T06:59:04.898Z,87.60
2017-11-25T07:00:04.814Z,87.16
2017-11-25T07:01:04.728Z,87.31
2017-11-25T07:02:04.635Z,86.83
2017-11-25T07:03:04.557Z,87.45
2017-11-25T07:04:04.509Z,87.16
2017-11-25T07:05:04.392Z,87.16
2017-11-25T07:06:04.302Z,87.16
2017-11-25T07:07:04.214Z,86.83
2017-11-25T07:08:04.127Z,87.69
2017-11-25T07:09:04.063Z,87.88
2017-11-25T07:10:03.955Z,87.40
2017-11-25T07:11:03.875Z,86.83
2017-11-25T07:12:03.797Z,86.78
2017-11-25T07:13:03.717Z,85.83
2017-11-25T07:14:03.627Z,85.64
2017-11-25T07:15:03.547Z,85.35
2017-11-25T07:16:03.461Z,85.69
2017-11-25T07:17:03.363Z,86.40
2017-11-25T07:18:03.277Z,85.54
2017-11-25T07:19:03.192Z,85.97
2017-11-25T07:20:03.107Z,85.54
2017-11-25T07:21:03.031Z,84.92
2017-11-25T07:22:02.935Z,85.45
2017-11-25T07:23:02.854Z,85.83
2017-11-25T07:24:02.781Z,85.83
2017-11-25T07:25:02.681Z,85.83
2017-11-25T07:26:02.600Z,85.93
2017-11-25T07:27:02.516Z,85.54
2017-11-25T07:28:02.447Z,85.50
2017-11-25T07:29:02.345Z,87.40
2017-11-25T07:30:02.263Z,87.31
2017-11-25T07:31:02.176Z,86.69
2017-11-25T07:32:02.089Z,86.40
2017-11-25T07:33:02.014Z,86.21
2017-11-25T07:34:02.812Z,86.49
2017-11-25T07:35:01.841Z,86.98
2017-11-25T07:36:01.754Z,86.83
2017-11-25T07:37:01.674Z,86.74
2017-11-25T07:38:01.596Z,87.45
2017-11-25T07:39:01.510Z,86.98
2017-11-25T07:40:01.411Z,87.02
2017-11-25T07:41:01.326Z,86.93
2017-11-25T07:42:01.241Z,88.26
2017-11-25T07:43:01.161Z,88.17
2017-11-25T07:44:01.068Z,87.35
2017-11-25T07:45:00.987Z,87.69
2017-11-25T07:46:00.901Z,87.88
2017-11-25T07:47:00.816Z,87.12
2017-11-25T07:48:00.744Z,87.07
2017-11-25T07:49:00.650Z,87.16
2017-11-25T07:50:00.581Z,86.59
2017-11-25T07:51:00.476Z,87.40
2017-11-25T07:52:00.397Z,87.12
2017-11-25T07:53:00.309Z,86.98
2017-11-25T07:54:00.237Z,87.02
2017-11-25T07:55:00.140Z,87.26
2017-11-25T07:56:00.066Z,86.88
2017-11-25T07:56:59.969Z,86.78
2017-11-25T07:57:59.890Z,86.93
2017-11-25T07:58:59.796Z,87.69
2017-11-25T07:59:59.735Z,88.36
2017-11-25T08:00:59.628Z,87.12
2017-11-25T08:01:59.541Z,88.36
2017-11-25T08:02:59.474Z,87.98
2017-11-25T08:03:59.371Z,87.69
2017-11-25T08:04:59.307Z,86.93
2017-11-25T08:05:59.209Z,86.83
2017-11-25T08:06:59.117Z,86.93
2017-11-25T08:07:59.033Z,87.21
2017-11-25T08:08:58.953Z,87.31
2017-11-25T08:09:58.860Z,86.74
2017-11-25T08:10:58.772Z,86.65
2017-11-25T08:11:58.693Z,86.45
2017-11-25T08:12:58.601Z,86.83
2017-11-25T08:13:58.520Z,85.69
2017-11-25T08:14:58.430Z,85.60
2017-11-25T08:15:58.353Z,85.02
2017-11-25T08:16:58.298Z,84.36
2017-11-25T08:17:58.174Z,85.21
2017-11-25T08:18:58.091Z,84.26
2017-11-25T08:19:58.007Z,84.36
2017-11-25T08:20:57.921Z,84.26
2017-11-25T08:21:57.837Z,84.36
2017-11-25T08:22:57.755Z,84.26
2017-11-25T08:23:57.669Z,83.78
2017-11-25T08:24:57.584Z,83.59
2017-11-25T08:25:57.505Z,84.07
2017-11-25T08:26:57.414Z,83.31
2017-11-25T08:27:57.330Z,83.59
2017-11-25T08:28:57.243Z,82.92
2017-11-25T08:29:57.160Z,83.50
2017-11-25T08:30:57.084Z,82.92
2017-11-25T08:31:56.989Z,83.12
2017-11-25T08:32:57.417Z,82.73
2017-11-25T08:33:56.817Z,82.68
2017-11-25T08:34:56.736Z,82.83
2017-11-25T08:35:56.655Z,82.54
2017-11-25T08:36:56.564Z,82.92
2017-11-25T08:37:56.487Z,82.64
2017-11-25T08:38:56.398Z,82.07
2017-11-25T08:39:56.331Z,82.11
2017-11-25T08:40:56.238Z,82.20
2017-11-25T08:41:56.150Z,81.78
2017-11-25T08:42:56.056Z,82.64
2017-11-25T08:43:55.989Z,82.97
2017-11-25T08:44:55.891Z,82.83
2017-11-25T08:45:55.807Z,82.54
2017-11-25T08:46:55.726Z,82.83
2017-11-25T08:47:55.640Z,83.06
2017-11-25T08:48:55.563Z,83.02
2017-11-25T08:49:55.470Z,83.97
2017-11-25T08:50:55.385Z,83.78
2017-11-25T08:51:55.308Z,83.69
2017-11-25T08:52:55.225Z,83.50
2017-11-25T08:53:55.137Z,83.31
2017-11-25T08:54:55.048Z,83.35
2017-11-25T08:55:54.967Z,83.44
2017-11-25T08:56:54.902Z,83.31
2017-11-25T08:57:54.805Z,83.97
2017-11-25T08:58:54.714Z,83.88
2017-11-25T08:59:54.629Z,83.88
2017-11-25T09:00:54.549Z,83.88
2017-11-25T09:01:54.462Z,83.69
2017-11-25T09:02:54.384Z,83.69
2017-11-25T09:03:54.294Z,83.88
2017-11-25T09:04:54.215Z,83.88
2017-11-25T09:05:54.122Z,84.07
2017-11-25T09:06:54.035Z,84.83
2017-11-25T09:07:53.954Z,84.98
2017-11-25T09:08:53.867Z,85.64
2017-11-25T09:09:53.810Z,85.46
2017-11-25T09:10:53.703Z,85.74
2017-11-25T09:11:53.610Z,86.36
2017-11-25T09:12:53.531Z,86.22
2017-11-25T09:13:53.440Z,85.80
2017-11-25T09:14:53.360Z,86.03
2017-11-25T09:15:53.309Z,85.93
2017-11-25T09:16:53.186Z,85.12
2017-11-25T09:17:53.097Z,84.41
2017-11-25T09:18:53.010Z,85.46
2017-11-25T09:19:52.927Z,85.74
2017-11-25T09:20:52.844Z,86.32
2017-11-25T09:21:52.763Z,86.32
2017-11-25T09:22:52.670Z,86.12
2017-11-25T09:23:52.584Z,86.79
2017-11-25T09:24:52.502Z,86.51
2017-11-25T09:25:52.412Z,86.84
2017-11-25T09:26:52.345Z,87.74
2017-11-25T09:27:52.244Z,87.03
2017-11-25T09:28:52.156Z,87.70
2017-11-25T09:29:52.073Z,87.84
2017-11-25T09:30:52.008Z,87.27
2017-11-25T09:31:51.979Z,86.32
2017-11-25T09:32:51.814Z,86.55
2017-11-25T09:33:51.724Z,87.55
2017-11-25T09:34:51.648Z,86.94
2017-11-25T09:35:51.558Z,87.36
2017-11-25T09:36:51.473Z,86.03
2017-11-25T09:37:51.384Z,86.03
2017-11-25T09:38:51.298Z,87.32
2017-11-25T09:39:51.211Z,87.23
2017-11-25T09:40:51.133Z,86.84
2017-11-25T09:41:51.042Z,86.75
2017-11-25T09:42:50.958Z,85.70
2017-11-25T09:43:50.867Z,86.51
2017-11-25T09:44:50.780Z,86.08
2017-11-25T09:45:50.701Z,86.51
2017-11-25T09:46:50.614Z,86.08
2017-11-25T09:47:50.528Z,86.84
2017-11-25T09:48:50.437Z,87.41
2017-11-25T09:49:50.355Z,87.65
2017-11-25T09:50:50.268Z,87.79
2017-11-25T09:51:50.186Z,87.03
2017-11-25T09:52:50.096Z,87.13
2017-11-25T09:53:50.009Z,87.41
2017-11-25T09:54:49.925Z,88.08
2017-11-25T09:55:49.836Z,87.89
2017-11-25T09:56:49.750Z,87.89
2017-11-25T09:57:49.663Z,86.84
2017-11-25T09:58:49.581Z,86.75
2017-11-25T09:59:49.494Z,87.32
2017-11-25T10:00:49.417Z,86.65
2017-11-25T10:01:50.280Z,86.27
2017-11-25T10:02:49.250Z,86.55
2017-11-25T10:03:49.149Z,87.32
2017-11-25T10:04:49.059Z,87.41
2017-11-25T10:05:48.971Z,86.75
2017-11-25T10:06:48.888Z,86.94
2017-11-25T10:07:48.813Z,87.85
2017-11-25T10:08:48.721Z,87.60
2017-11-25T10:09:48.627Z,87.23
2017-11-25T10:10:48.549Z,86.65
2017-11-25T10:11:48.458Z,86.36
2017-11-25T10:12:48.373Z,86.46
2017-11-25T10:13:48.282Z,85.99
2017-11-25T10:14:48.197Z,87.23
2017-11-25T10:15:48.117Z,87.32
2017-11-25T10:16:48.029Z,87.23
2017-11-25T10:17:47.939Z,86.84
2017-11-25T10:18:47.850Z,87.13
2017-11-25T10:19:47.773Z,86.84
2017-11-25T10:20:47.679Z,87.32
2017-11-25T10:21:47.587Z,86.55
2017-11-25T10:22:47.506Z,85.89
2017-11-25T10:23:47.417Z,85.70
2017-11-25T10:24:47.339Z,85.41
2017-11-25T10:25:47.253Z,86.75
2017-11-25T10:26:47.162Z,86.55
2017-11-25T10:27:47.070Z,86.46
2017-11-25T10:28:46.989Z,87.75
2017-11-25T10:29:46.899Z,88.04
2017-11-25T10:30:46.821Z,87.94
2017-11-25T10:31:46.730Z,87.80
2017-11-25T10:32:46.637Z,88.42
2017-11-25T10:33:46.558Z,87.85
2017-11-25T10:34:46.467Z,87.94
2017-11-25T10:35:46.375Z,87.94
2017-11-25T10:36:46.293Z,86.99
2017-11-25T10:37:46.209Z,86.75
2017-11-25T10:38:46.117Z,86.70
2017-11-25T10:39:46.026Z,85.51
2017-11-25T10:40:45.938Z,85.75
2017-11-25T10:41:45.856Z,85.37
2017-11-25T10:42:45.781Z,85.41
2017-11-25T10:43:45.682Z,85.03
2017-11-25T10:44:45.593Z,84.42
2017-11-25T10:45:45.504Z,84.99
2017-11-25T10:46:45.414Z,84.80
2017-11-25T10:47:45.332Z,84.89
2017-11-25T10:48:45.257Z,86.32
2017-11-25T10:49:45.160Z,86.04
2017-11-25T10:50:45.076Z,85.85
2017-11-25T10:51:44.975Z,85.66
2017-11-25T10:52:44.890Z,85.85
2017-11-25T10:53:44.806Z,85.47
2017-11-25T10:54:44.736Z,85.85
2017-11-25T10:55:44.645Z,85.37
2017-11-25T10:56:44.548Z,86.22
2017-11-25T10:57:44.456Z,86.32
2017-11-25T10:58:44.366Z,87.08
2017-11-25T10:59:44.281Z,86.70
2017-11-25T11:00:44.840Z,86.70
2017-11-25T11:01:44.109Z,85.47
2017-11-25T11:02:44.026Z,85.37
2017-11-25T11:03:43.940Z,84.89
2017-11-25T11:04:43.858Z,85.66
2017-11-25T11:05:43.762Z,85.47
2017-11-25T11:06:43.688Z,86.99
2017-11-25T11:07:43.590Z,85.56
2017-11-25T11:08:43.502Z,84.80
2017-11-25T11:09:43.406Z,84.80
2017-11-25T11:10:43.320Z,84.52
2017-11-25T11:11:43.242Z,85.18
2017-11-25T11:12:43.148Z,86.32
2017-11-25T11:13:43.061Z,86.04
2017-11-25T11:14:42.971Z,85.66
2017-11-25T11:15:42.890Z,85.28
2017-11-25T11:16:42.794Z,84.13
2017-11-25T11:17:42.713Z,84.42
2017-11-25T11:18:42.628Z,84.36
2017-11-25T11:19:42.539Z,83.61
2017-11-25T11:20:42.455Z,83.37
2017-11-25T11:21:42.366Z,83.65
2017-11-25T11:22:42.273Z,84.33
2017-11-25T11:23:42.194Z,84.61
2017-11-25T11:24:42.122Z,84.52
2017-11-25T11:25:42.015Z,84.33
2017-11-25T11:26:41.934Z,83.37
2017-11-25T11:27:41.843Z,84.23
2017-11-25T11:28:41.755Z,84.80
2017-11-25T11:29:41.667Z,85.37
2017-11-25T11:30:41.590Z,85.75
2017-11-25T11:31:41.489Z,85.80
2017-11-25T11:32:41.412Z,84.99
2017-11-25T11:33:41.315Z,84.89
2017-11-25T11:34:41.240Z,85.37
2017-11-25T11:35:41.142Z,85.66
2017-11-25T11:36:41.052Z,85.66
2017-11-25T11:37:40.965Z,86.22
2017-11-25T11:38:40.930Z,85.75
2017-11-25T11:39:40.800Z,85.66
2017-11-25T11:40:40.704Z,85.18
2017-11-25T11:41:40.617Z,83.85
2017-11-25T11:42:40.525Z,84.99
2017-11-25T11:43:40.437Z,85.37
2017-11-25T11:44:40.359Z,85.47
2017-11-25T11:45:40.268Z,84.89
2017-11-25T11:46:40.180Z,84.61
2017-11-25T11:47:40.086Z,84.04
2017-11-25T11:48:40.006Z,84.99
2017-11-25T11:49:39.926Z,84.33
2017-11-25T11:50:39.825Z,84.42
2017-11-25T11:51:39.740Z,84.42
2017-11-25T11:52:39.645Z,85.18
2017-11-25T11:53:39.569Z,84.99
2017-11-25T11:54:39.489Z,84.33
2017-11-25T11:55:39.403Z,84.89
2017-11-25T11:56:39.334Z,86.61
2017-11-25T11:57:39.220Z,85.66
2017-11-25T11:58:39.127Z,86.66
2017-11-25T11:59:39.447Z,86.61
2017-11-25T12:00:38.954Z,86.18
2017-11-25T12:01:38.861Z,86.61
2017-11-25T12:02:38.779Z,85.85
2017-11-25T12:03:38.690Z,85.37
2017-11-25T12:04:38.609Z,85.28
2017-11-25T12:05:38.509Z,85.47
2017-11-25T12:06:38.429Z,84.89
2017-11-25T12:07:38.339Z,85.47
2017-11-25T12:08:38.258Z,85.66
2017-11-25T12:09:38.166Z,85.51
2017-11-25T12:10:38.084Z,85.22
2017-11-25T12:11:37.991Z,84.56
2017-11-25T12:12:37.905Z,84.42
2017-11-25T12:13:37.811Z,85.08
2017-11-25T12:14:37.737Z,85.03
2017-11-25T12:15:37.647Z,84.89
2017-11-25T12:16:37.553Z,84.89
2017-11-25T12:17:37.471Z,85.03
2017-11-25T12:18:37.385Z,84.23
2017-11-25T12:19:37.300Z,84.23
2017-11-25T12:20:37.306Z,84.99
2017-11-25T12:21:37.121Z,84.89
2017-11-25T12:22:37.036Z,85.28
2017-11-25T12:23:36.949Z,84.33
2017-11-25T12:24:36.858Z,84.89
2017-11-25T12:25:36.770Z,85.08
2017-11-25T12:26:36.689Z,84.33
2017-11-25T12:27:36.609Z,84.56
2017-11-25T12:28:36.510Z,83.98
2017-11-25T12:29:36.434Z,84.56
2017-11-25T12:30:36.333Z,84.46
2017-11-25T12:31:36.254Z,84.27
2017-11-25T12:32:36.162Z,84.80
2017-11-25T12:33:36.077Z,84.52
2017-11-25T12:34:35.988Z,84.94
2017-11-25T12:35:35.902Z,83.70
2017-11-25T12:36:35.821Z,83.80
2017-11-25T12:37:35.731Z,83.98
2017-11-25T12:38:35.638Z,83.70
2017-11-25T12:39:35.571Z,84.23
2017-11-25T12:40:35.468Z,83.70
2017-11-25T12:41:35.385Z,83.47
2017-11-25T12:42:35.291Z,85.08
2017-11-25T12:43:35.219Z,85.08
2017-11-25T12:44:35.117Z,84.99
2017-11-25T12:45:35.031Z,84.27
2017-11-25T12:46:34.957Z,83.65
2017-11-25T12:47:34.857Z,84.80
2017-11-25T12:48:34.770Z,84.89
2017-11-25T12:49:34.681Z,84.89
2017-11-25T12:50:34.597Z,84.89
2017-11-25T12:51:34.520Z,83.75